createdAt,value
2018-08-04T00:09:07.018Z,83.66
2018-08-04T00:24:11.321Z,85.32
2018-08-04T00:39:15.689Z,83.83
2018-08-04T00:54:19.741Z,87.51
2018-08-04T01:09:23.971Z,90.31
2018-08-04T01:24:28.171Z,93.69
2018-08-04T01:39:32.287Z,94.86
2018-08-04T01:54:36.362Z,96.73
2018-08-04T02:09:40.484Z,98.57
2018-08-04T02:24:44.825Z,100.00
2018-08-04T02:39:49.085Z,100.00
2018-08-04T02:54:53.285Z,100.00
2018-08-04T03:09:57.483Z,100.00
2018-08-04T03:25:01.761Z,100.00
2018-08-04T03:40:06.176Z,100.00
2018-08-04T03:55:10.289Z,99.80
2018-08-04T04:10:14.488Z,97.98
2018-08-04T04:25:18.586Z,90.81
2018-08-04T04:40:23.055Z,75.18
2018-08-04T04:55:27.521Z,65.81
2018-08-04T05:10:31.657Z,59.51
2018-08-04T05:25:37.371Z,58.87
2018-08-04T05:40:41.491Z,53.24
2018-08-04T05:55:45.574Z,52.14
2018-08-04T06:10:49.713Z,52.20
2018-08-04T06:25:54.018Z,54.76
2018-08-04T06:40:58.201Z,55.49
2018-08-04T06:56:02.575Z,52.11
2018-08-04T07:11:06.709Z,48.70
2018-08-04T07:26:11.049Z,47.30
2018-08-04T07:41:15.314Z,45.78
2018-08-04T07:56:19.293Z,44.14
2018-08-04T08:11:23.880Z,42.45
2018-08-04T08:26:27.693Z,43.95
2018-08-04T08:41:31.955Z,43.19
2018-08-04T08:56:36.260Z,42.37
2018-08-04T09:11:40.476Z,42.37
2018-08-04T09:26:44.804Z,42.60
2018-08-04T09:41:48.684Z,38.64
2018-08-04T09:56:53.091Z,45.35
2018-08-04T10:11:57.825Z,39.36
2018-08-04T10:27:01.875Z,36.24
2018-08-04T10:42:06.988Z,37.25
2018-08-04T10:57:11.327Z,34.68
2018-08-04T11:12:15.309Z,36.24
2018-08-04T11:27:19.360Z,44.10
2018-08-04T11:42:23.607Z,42.28
2018-08-04T11:57:27.975Z,42.03
2018-08-04T12:12:32.061Z,43.50
2018-08-04T12:27:36.282Z,44.85
2018-08-04T12:42:40.674Z,44.46
2018-08-04T12:57:45.016Z,44.76
2018-08-04T13:12:49.321Z,48.29
2018-08-04T13:27:54.019Z,49.29
2018-08-04T13:42:58.412Z,48.53
2018-08-04T13:58:02.591Z,47.44
2018-08-04T14:13:06.947Z,50.65
2018-08-04T14:28:11.338Z,46.99
2018-08-04T14:43:15.802Z,49.94
2018-08-04T14:58:19.797Z,51.23
2018-08-04T15:13:24.221Z,47.71
2018-08-04T15:28:28.522Z,46.60
2018-08-04T15:43:33.145Z,51.27
2018-08-04T15:58:37.307Z,53.17
2018-08-04T16:13:41.708Z,52.87
2018-08-04T16:28:46.033Z,52.75
2018-08-04T16:43:49.972Z,51.08
2018-08-04T16:58:53.918Z,56.42
2018-08-04T17:14:29.062Z,55.63
2018-08-04T17:30:02.297Z,57.45
2018-08-04T17:45:36.276Z,59.22
2018-08-04T18:01:10.350Z,62.27
2018-08-04T18:16:45.571Z,62.22
2018-08-04T18:32:19.240Z,60.65
2018-08-04T18:47:53.044Z,60.75
2018-08-04T19:03:27.293Z,61.13
2018-08-04T19:19:02.866Z,61.80
2018-08-04T19:34:36.930Z,57.95
2018-08-04T19:50:11.997Z,58.59
2018-08-04T20:05:45.726Z,57.60
2018-08-04T20:21:20.526Z,58.29
2018-08-04T20:36:55.040Z,59.01
2018-08-04T20:52:29.586Z,57.69
2018-08-04T21:08:03.309Z,57.37
2018-08-04T21:23:37.464Z,58.60
2018-08-04T21:39:13.223Z,58.36
2018-08-04T21:54:48.221Z,59.82
2018-08-04T22:10:22.953Z,59.69
2018-08-04T22:25:57.354Z,61.90
2018-08-04T22:41:30.189Z,62.26
2018-08-04T22:57:04.623Z,69.29
2018-08-04T23:12:40.514Z,70.37
2018-08-04T23:28:14.755Z,74.65
2018-08-04T23:43:50.208Z,77.88
2018-08-04T23:59:25.113Z,79.02
